Time;durP1;ratioP1;P1;durP2;ratioP2;P2;SDS_P1;SDS_P2;PMS_P1;PMS_P2;Temp;Humidity;BMP_temperature;BMP_pressure;BME280_temperature;BME280_humidity;BME280_pressure;Samples;Min_cycle;Max_cycle;Signal;HPM_P1;HPM_P2
2023/10/20 00:00:20;;;;;;;27.50;17.00;;;;;;;;;;5011948;28;20218;-67
2023/10/20 00:02:45;;;;;;;28.98;18.33;;;;;;;;;;5010038;28;20357;-67
2023/10/20 00:05:10;;;;;;;26.30;18.83;;;;;;;;;;5010705;28;20591;-66
2023/10/20 00:07:36;;;;;;;27.42;17.60;;;;;;;;;;5012021;28;20237;-68
2023/10/20 00:10:03;;;;;;;29.25;18.55;;;;;;;;;;5012044;28;20179;-67
2023/10/20 00:12:29;;;;;;;28.50;17.55;;;;;;;;;;5011757;28;20618;-67
2023/10/20 00:14:54;;;;;;;29.20;17.83;;;;;;;;;;5011924;28;20278;-67
2023/10/20 00:17:19;;;;;;;28.58;17.13;;;;;;;;;;5011019;28;20171;-67
2023/10/20 00:19:45;;;;;;;28.10;18.50;;;;;;;;;;5011970;28;20230;-67
2023/10/20 00:22:10;;;;;;;30.25;18.77;;;;;;;;;;5012351;28;20238;-66
2023/10/20 00:24:36;;;;;;;29.90;17.67;;;;;;;;;;5010416;28;20182;-67
2023/10/20 00:27:01;;;;;;;25.40;18.67;;;;;;;;;;5012288;28;20705;-67
2023/10/20 00:29:26;;;;;;;29.38;19.33;;;;;;;;;;5010824;28;20179;-66
2023/10/20 00:31:51;;;;;;;29.20;18.30;;;;;;;;;;5011665;28;20636;-66
2023/10/20 00:34:16;;;;;;;28.60;19.10;;;;;;;;;;5010731;28;20181;-67
2023/10/20 00:36:42;;;;;;;25.20;18.05;;;;;;;;;;5011136;28;20179;-66
2023/10/20 00:39:07;;;;;;;27.70;18.58;;;;;;;;;;5011682;28;20677;-67
2023/10/20 00:41:34;;;;;;;26.23;18.27;;;;;;;;;;5009833;28;20252;-66
2023/10/20 00:44:00;;;;;;;27.25;18.90;;;;;;;;;;5011315;28;20190;-67
2023/10/20 00:46:25;;;;;;;32.10;17.38;;;;;;;;;;5012990;28;20213;-66
2023/10/20 00:48:50;;;;;;;24.90;17.05;;;;;;;;;;5015347;28;20190;-67
2023/10/20 00:51:15;;;;;;;25.15;17.88;;;;;;;;;;5009590;28;20202;-67
2023/10/20 00:53:41;;;;;;;22.92;16.63;;;;;;;;;;5009396;28;20666;-67
2023/10/20 00:56:06;;;;;;;27.15;17.45;;;;;;;;;;5009745;28;20181;-67
2023/10/20 00:58:32;;;;;;;26.02;17.35;;;;;;;;;;5011121;28;20191;-67
2023/10/20 01:00:57;;;;;;;24.60;16.65;;;;;;;;;;5012074;28;20228;-67
2023/10/20 01:03:22;;;;;;;25.83;17.58;;;;;;;;;;5012150;28;20207;-67
2023/10/20 01:05:48;;;;;;;21.65;16.60;;;;;;;;;;5007215;28;20201;-67
2023/10/20 01:08:13;;;;;;;23.63;16.15;;;;;;;;;;5010591;28;20626;-67
2023/10/20 01:10:39;;;;;;;32.88;17.67;;;;;;;;;;5011708;28;20222;-67
2023/10/20 01:13:04;;;;;;;24.42;15.75;;;;;;;;;;5011887;28;20610;-67
2023/10/20 01:15:30;;;;;;;25.48;17.42;;;;;;;;;;5010331;28;20708;-66
2023/10/20 01:17:55;;;;;;;24.70;16.45;;;;;;;;;;5011829;28;20182;-67
2023/10/20 01:20:20;;;;;;;26.95;17.50;;;;;;;;;;5011730;28;20187;-65
2023/10/20 01:22:45;;;;;;;25.40;16.40;;;;;;;;;;5011599;28;20166;-65
2023/10/20 01:25:11;;;;;;;23.85;17.38;;;;;;;;;;5011765;28;20174;-66
2023/10/20 01:27:36;;;;;;;27.33;15.80;;;;;;;;;;5010075;28;20584;-66
2023/10/20 01:30:02;;;;;;;26.52;17.20;;;;;;;;;;5011518;28;20175;-67
2023/10/20 01:32:27;;;;;;;26.20;16.58;;;;;;;;;;5010345;28;20179;-67
2023/10/20 01:34:52;;;;;;;27.58;17.85;;;;;;;;;;5010680;28;20245;-67
2023/10/20 01:37:18;;;;;;;24.20;16.02;;;;;;;;;;5009821;28;20320;-67
2023/10/20 01:39:43;;;;;;;27.23;17.20;;;;;;;;;;5011002;28;20258;-67
2023/10/20 01:42:08;;;;;;;28.42;16.77;;;;;;;;;;5011223;28;20191;-66
2023/10/20 01:44:33;;;;;;;24.10;15.55;;;;;;;;;;5010871;28;20657;-66
2023/10/20 01:46:59;;;;;;;23.20;15.90;;;;;;;;;;5009535;28;20202;-66
2023/10/20 01:49:24;;;;;;;23.98;16.90;;;;;;;;;;5010469;28;20182;-65
2023/10/20 01:51:50;;;;;;;25.48;17.67;;;;;;;;;;5009888;28;20226;-66
2023/10/20 01:54:15;;;;;;;27.38;17.75;;;;;;;;;;5024830;28;20270;-67
2023/10/20 01:56:40;;;;;;;26.65;17.95;;;;;;;;;;5010465;28;20191;-66
2023/10/20 01:59:05;;;;;;;25.65;17.90;;;;;;;;;;5011811;28;20191;-66
2023/10/20 02:01:31;;;;;;;26.48;16.25;;;;;;;;;;5010722;28;20206;-67
2023/10/20 02:03:56;;;;;;;24.55;16.95;;;;;;;;;;5008032;28;20191;-66
2023/10/20 02:06:22;;;;;;;26.80;18.50;;;;;;;;;;5009617;28;20199;-67
2023/10/20 02:08:47;;;;;;;30.27;19.35;;;;;;;;;;5010404;28;20167;-67
2023/10/20 02:11:12;;;;;;;26.92;18.50;;;;;;;;;;5010293;28;20226;-66
2023/10/20 02:13:38;;;;;;;27.52;18.45;;;;;;;;;;5011031;28;20171;-68
2023/10/20 02:16:06;;;;;;;30.83;20.20;;;;;;;;;;5010504;28;20246;-66
2023/10/20 02:18:31;;;;;;;28.08;19.85;;;;;;;;;;5014518;28;20175;-67
2023/10/20 02:21:03;;;;;;;29.55;20.95;;;;;;;;;;5014451;28;20568;-66
2023/10/20 02:23:29;;;;;;;29.20;19.63;;;;;;;;;;5008900;28;20604;-66
2023/10/20 02:25:58;;;;;;;31.77;21.70;;;;;;;;;;5014064;28;20202;-67
2023/10/20 02:28:23;;;;;;;32.78;20.08;;;;;;;;;;5015103;28;20183;-67
2023/10/20 02:30:48;;;;;;;32.88;20.83;;;;;;;;;;5014266;28;20210;-67
2023/10/20 02:33:14;;;;;;;35.25;21.17;;;;;;;;;;5014172;28;20217;-66
2023/10/20 02:35:40;;;;;;;33.38;21.13;;;;;;;;;;5010493;28;20217;-67
2023/10/20 02:38:05;;;;;;;33.67;20.92;;;;;;;;;;5013460;28;20183;-66
2023/10/20 02:40:30;;;;;;;40.75;21.73;;;;;;;;;;5014321;28;20199;-66
2023/10/20 02:42:55;;;;;;;34.25;21.50;;;;;;;;;;5014066;28;20612;-66
2023/10/20 02:45:20;;;;;;;33.90;23.02;;;;;;;;;;5012773;28;20201;-66
2023/10/20 02:47:46;;;;;;;41.72;23.83;;;;;;;;;;5013423;28;20175;-66
2023/10/20 02:50:11;;;;;;;37.35;22.92;;;;;;;;;;5014055;28;20293;-66
2023/10/20 02:52:36;;;;;;;30.98;20.90;;;;;;;;;;5012310;28;20209;-67
2023/10/20 02:55:01;;;;;;;37.42;24.33;;;;;;;;;;5013828;28;20677;-66
2023/10/20 02:57:27;;;;;;;38.60;23.13;;;;;;;;;;5013512;28;20193;-67
2023/10/20 02:59:52;;;;;;;34.55;21.63;;;;;;;;;;5014919;28;20225;-67
2023/10/20 03:02:18;;;;;;;37.42;22.25;;;;;;;;;;5014236;28;20562;-66
2023/10/20 03:04:43;;;;;;;36.55;22.63;;;;;;;;;;5014064;28;20189;-67
2023/10/20 03:07:12;;;;;;;35.17;22.27;;;;;;;;;;5013651;28;20241;-67
2023/10/20 03:09:37;;;;;;;36.47;22.63;;;;;;;;;;5014264;28;20171;-66
2023/10/20 03:12:03;;;;;;;40.70;22.92;;;;;;;;;;5013416;28;20205;-67
2023/10/20 03:14:29;;;;;;;35.97;22.17;;;;;;;;;;5014083;28;20171;-67
2023/10/20 03:16:54;;;;;;;31.50;21.33;;;;;;;;;;5013705;28;20222;-68
2023/10/20 03:19:20;;;;;;;34.00;20.92;;;;;;;;;;5012370;28;20179;-67
2023/10/20 03:21:45;;;;;;;32.47;19.85;;;;;;;;;;5014118;28;20454;-65
2023/10/20 03:24:10;;;;;;;35.55;21.33;;;;;;;;;;5013710;28;20723;-67
2023/10/20 03:26:35;;;;;;;32.22;19.70;;;;;;;;;;5011016;28;20206;-66
2023/10/20 03:29:00;;;;;;;34.40;19.77;;;;;;;;;;5012588;28;20191;-67
2023/10/20 03:31:26;;;;;;;37.28;21.55;;;;;;;;;;5011165;28;20289;-67
2023/10/20 03:33:51;;;;;;;38.45;21.42;;;;;;;;;;5011947;28;20618;-67
2023/10/20 03:36:17;;;;;;;39.63;20.98;;;;;;;;;;5012429;28;20221;-67
2023/10/20 03:38:42;;;;;;;35.47;22.02;;;;;;;;;;5012376;28;20175;-67
2023/10/20 03:41:09;;;;;;;33.97;20.30;;;;;;;;;;5011118;28;20241;-67
2023/10/20 03:43:37;;;;;;;33.42;20.15;;;;;;;;;;5010896;28;20187;-66
2023/10/20 03:46:04;;;;;;;33.58;19.58;;;;;;;;;;5012718;28;20616;-67
2023/10/20 03:48:29;;;;;;;35.40;21.00;;;;;;;;;;5013901;28;20354;-66
2023/10/20 03:50:55;;;;;;;33.85;20.50;;;;;;;;;;5011533;28;20195;-66
2023/10/20 03:53:27;;;;;;;37.50;21.70;;;;;;;;;;5012197;28;20298;-66
2023/10/20 03:55:59;;;;;;;37.42;21.52;;;;;;;;;;5012106;28;20660;-66
2023/10/20 03:58:25;;;;;;;35.70;20.65;;;;;;;;;;5009587;28;20180;-67
2023/10/20 04:01:02;;;;;;;33.65;20.02;;;;;;;;;;5011407;28;20198;-66
2023/10/20 04:03:31;;;;;;;36.42;21.45;;;;;;;;;;5011846;28;20190;-67
2023/10/20 04:05:56;;;;;;;37.92;22.67;;;;;;;;;;5011453;28;20252;-67
2023/10/20 04:08:22;;;;;;;38.90;20.67;;;;;;;;;;5012396;28;20551;-67
2023/10/20 04:10:48;;;;;;;35.30;21.00;;;;;;;;;;5012090;28;20720;-66
2023/10/20 04:13:13;;;;;;;38.25;20.77;;;;;;;;;;5011615;28;20182;-66
2023/10/20 04:15:39;;;;;;;42.67;20.55;;;;;;;;;;5009279;28;20175;-67
2023/10/20 04:18:04;;;;;;;38.63;20.33;;;;;;;;;;5011848;28;20185;-67
2023/10/20 04:20:30;;;;;;;37.85;19.40;;;;;;;;;;5011754;28;20206;-67
2023/10/20 04:22:58;;;;;;;37.10;19.60;;;;;;;;;;5012519;28;20278;-67
2023/10/20 04:25:24;;;;;;;36.08;20.42;;;;;;;;;;5011665;28;20187;-68
2023/10/20 04:28:11;;;;;;;35.03;20.98;;;;;;;;;;5012079;28;20189;-67
2023/10/20 04:41:55;;;;;;;32.65;17.08;;;;;;;;;;5012113;28;20202;-67
2023/10/20 04:57:29;;;;;;;37.13;19.65;;;;;;;;;;5011268;28;20179;-67
2023/10/20 05:07:50;;;;;;;30.02;16.88;;;;;;;;;;5011121;28;20183;-66
2023/10/20 05:10:17;;;;;;;36.75;18.88;;;;;;;;;;5011440;28;20274;-66
2023/10/20 05:12:42;;;;;;;34.15;19.95;;;;;;;;;;5011685;28;20179;-66
2023/10/20 05:15:10;;;;;;;37.63;18.92;;;;;;;;;;5011396;28;20672;-67
2023/10/20 05:17:35;;;;;;;37.88;18.48;;;;;;;;;;5011336;28;20175;-66
2023/10/20 05:20:00;;;;;;;34.05;19.08;;;;;;;;;;5011465;28;20658;-67
2023/10/20 05:22:27;;;;;;;38.38;19.38;;;;;;;;;;5011478;28;20576;-68
2023/10/20 05:24:52;;;;;;;35.42;16.65;;;;;;;;;;5011178;28;20197;-66
2023/10/20 05:27:17;;;;;;;34.55;18.63;;;;;;;;;;5009141;28;20744;-67
2023/10/20 05:29:42;;;;;;;34.38;18.45;;;;;;;;;;5010444;28;20522;-66
2023/10/20 05:32:07;;;;;;;32.03;16.85;;;;;;;;;;5011406;28;20301;-67
2023/10/20 05:34:34;;;;;;;33.88;17.60;;;;;;;;;;5014291;28;20175;-67
2023/10/20 05:36:59;;;;;;;40.10;19.45;;;;;;;;;;5009590;28;20265;-67
2023/10/20 05:39:24;;;;;;;39.92;19.25;;;;;;;;;;5008918;28;20281;-67
2023/10/20 05:41:50;;;;;;;37.15;20.02;;;;;;;;;;5010659;28;20234;-67
2023/10/20 05:44:17;;;;;;;39.33;19.42;;;;;;;;;;5010427;28;20605;-67
2023/10/20 05:46:42;;;;;;;35.53;18.60;;;;;;;;;;5011207;28;20210;-67
2023/10/20 05:49:10;;;;;;;31.73;17.70;;;;;;;;;;5010827;28;20179;-67
2023/10/20 05:51:35;;;;;;;34.67;18.77;;;;;;;;;;5009909;28;20191;-67
2023/10/20 05:54:03;;;;;;;35.60;18.38;;;;;;;;;;5009749;28;20693;-67
2023/10/20 05:56:28;;;;;;;34.15;17.17;;;;;;;;;;5010391;28;20215;-66
2023/10/20 05:58:53;;;;;;;32.67;17.85;;;;;;;;;;5006830;28;20583;-66
2023/10/20 06:01:18;;;;;;;32.00;16.52;;;;;;;;;;5008315;28;20757;-65
2023/10/20 06:03:44;;;;;;;35.20;18.13;;;;;;;;;;5004653;28;20244;-66
2023/10/20 06:06:10;;;;;;;30.23;16.80;;;;;;;;;;5009545;28;20207;-66
2023/10/20 06:08:35;;;;;;;31.63;16.63;;;;;;;;;;5007606;28;20171;-67
2023/10/20 06:11:04;;;;;;;29.23;16.33;;;;;;;;;;5008893;28;20199;-67
2023/10/20 06:13:30;;;;;;;27.80;16.30;;;;;;;;;;5009121;28;20202;-67
2023/10/20 06:15:56;;;;;;;29.13;16.63;;;;;;;;;;5009636;28;20674;-67
2023/10/20 06:18:21;;;;;;;25.60;14.73;;;;;;;;;;5010195;28;20195;-67
2023/10/20 06:20:46;;;;;;;26.25;13.35;;;;;;;;;;5009970;28;20290;-67
2023/10/20 06:23:12;;;;;;;24.38;13.95;;;;;;;;;;5010882;28;20178;-67
2023/10/20 06:25:37;;;;;;;22.65;12.60;;;;;;;;;;5009345;28;20959;-67
2023/10/20 06:28:04;;;;;;;25.48;12.48;;;;;;;;;;5009869;28;20183;-67
2023/10/20 06:30:29;;;;;;;20.83;12.40;;;;;;;;;;5009202;28;20219;-67
2023/10/20 06:36:10;;;;;;;21.17;12.07;;;;;;;;;;4965113;28;20610;-67
2023/10/20 06:41:01;;;;;;;17.63;10.63;;;;;;;;;;4990528;28;20214;-68
2023/10/20 06:43:26;;;;;;;18.10;10.88;;;;;;;;;;5009088;28;20187;-68
2023/10/20 06:45:56;;;;;;;17.50;10.60;;;;;;;;;;5009939;28;20199;-68
2023/10/20 06:48:21;;;;;;;19.00;10.55;;;;;;;;;;5010660;28;20183;-68
2023/10/20 06:50:46;;;;;;;18.08;10.25;;;;;;;;;;5009938;28;20590;-68
2023/10/20 06:53:11;;;;;;;15.30;8.98;;;;;;;;;;5014149;28;20194;-68
2023/10/20 06:55:40;;;;;;;18.02;9.43;;;;;;;;;;5008978;28;20213;-68
2023/10/20 06:58:05;;;;;;;13.95;8.82;;;;;;;;;;5009648;28;20654;-68
2023/10/20 07:00:30;;;;;;;16.63;9.13;;;;;;;;;;5009937;28;20208;-68
2023/10/20 07:02:55;;;;;;;16.42;9.10;;;;;;;;;;5012273;28;20257;-68
2023/10/20 07:05:23;;;;;;;14.77;9.00;;;;;;;;;;5014051;28;20175;-68
2023/10/20 07:07:48;;;;;;;16.02;9.65;;;;;;;;;;5012572;28;20203;-68
2023/10/20 07:10:14;;;;;;;17.95;8.98;;;;;;;;;;5013871;28;20206;-68
2023/10/20 07:12:39;;;;;;;17.27;9.40;;;;;;;;;;5013455;28;20646;-68
2023/10/20 07:15:05;;;;;;;17.20;9.32;;;;;;;;;;5013753;28;20175;-68
2023/10/20 07:17:32;;;;;;;17.30;10.07;;;;;;;;;;5013124;28;20182;-68
2023/10/20 07:19:57;;;;;;;14.67;9.50;;;;;;;;;;5012363;28;20273;-69
2023/10/20 07:22:22;;;;;;;16.23;9.17;;;;;;;;;;5013733;28;20263;-69
2023/10/20 07:24:48;;;;;;;14.97;9.33;;;;;;;;;;5013411;28;20175;-68
2023/10/20 07:27:13;;;;;;;15.47;8.47;;;;;;;;;;5013590;28;20213;-68
2023/10/20 07:29:38;;;;;;;15.17;8.93;;;;;;;;;;5013492;28;20266;-68
2023/10/20 07:32:03;;;;;;;16.20;9.57;;;;;;;;;;5012130;28;20252;-68
2023/10/20 07:34:29;;;;;;;18.75;9.70;;;;;;;;;;5012345;28;20228;-68
2023/10/20 07:36:54;;;;;;;16.75;9.68;;;;;;;;;;5012340;28;20171;-68
2023/10/20 07:39:19;;;;;;;16.70;10.13;;;;;;;;;;5012803;28;20171;-68
2023/10/20 07:41:45;;;;;;;15.57;9.00;;;;;;;;;;5013183;28;20202;-68
2023/10/20 07:44:15;;;;;;;15.35;8.50;;;;;;;;;;5012527;28;20576;-68
2023/10/20 07:46:41;;;;;;;14.85;9.27;;;;;;;;;;5012346;28;20712;-68
2023/10/20 07:49:08;;;;;;;16.40;9.85;;;;;;;;;;5011894;28;20175;-68
2023/10/20 07:51:33;;;;;;;11.97;7.83;;;;;;;;;;5011754;28;20205;-68
2023/10/20 07:53:59;;;;;;;18.20;8.68;;;;;;;;;;5011866;28;20171;-68
2023/10/20 07:56:25;;;;;;;13.48;8.75;;;;;;;;;;5012635;28;20567;-68
2023/10/20 07:58:50;;;;;;;17.35;9.38;;;;;;;;;;5012698;28;20175;-67
2023/10/20 08:01:15;;;;;;;14.70;9.03;;;;;;;;;;5011451;28;20202;-68
2023/10/20 08:03:45;;;;;;;15.73;8.60;;;;;;;;;;5012928;28;20284;-68
2023/10/20 08:06:10;;;;;;;12.07;7.53;;;;;;;;;;5011289;28;20203;-68
2023/10/20 08:08:35;;;;;;;16.63;8.35;;;;;;;;;;5012172;28;20174;-68
2023/10/20 08:11:03;;;;;;;14.82;8.02;;;;;;;;;;5011945;28;20187;-68
2023/10/20 08:13:28;;;;;;;16.83;8.33;;;;;;;;;;5011247;28;20175;-68
2023/10/20 08:15:54;;;;;;;13.40;8.65;;;;;;;;;;5011376;28;20657;-68
2023/10/20 08:18:19;;;;;;;14.23;8.40;;;;;;;;;;5010844;28;20179;-68
2023/10/20 08:20:44;;;;;;;13.73;7.43;;;;;;;;;;5011740;28;20195;-68
2023/10/20 08:23:09;;;;;;;14.55;8.15;;;;;;;;;;5011475;28;20221;-68
2023/10/20 08:25:38;;;;;;;11.30;6.97;;;;;;;;;;5010047;28;20180;-69
2023/10/20 08:28:03;;;;;;;15.97;8.20;;;;;;;;;;5011766;28;20190;-69
2023/10/20 08:30:28;;;;;;;14.73;8.03;;;;;;;;;;5009675;28;20206;-69
2023/10/20 08:32:54;;;;;;;13.67;6.87;;;;;;;;;;5009894;28;20597;-69
2023/10/20 08:35:19;;;;;;;11.60;7.10;;;;;;;;;;5010278;28;20205;-70
2023/10/20 08:37:44;;;;;;;10.97;6.97;;;;;;;;;;5012080;28;20670;-69
2023/10/20 08:40:12;;;;;;;12.50;7.53;;;;;;;;;;5011716;28;20210;-69
2023/10/20 08:42:38;;;;;;;8.63;5.87;;;;;;;;;;5012231;28;20179;-69
2023/10/20 08:45:06;;;;;;;11.80;6.63;;;;;;;;;;5010941;28;20239;-70
2023/10/20 08:47:32;;;;;;;12.23;6.27;;;;;;;;;;5011492;28;20735;-70
2023/10/20 08:49:57;;;;;;;10.17;6.07;;;;;;;;;;5011406;28;20175;-69
2023/10/20 08:52:23;;;;;;;9.93;6.17;;;;;;;;;;5010534;28;20665;-69
2023/10/20 08:54:48;;;;;;;11.10;6.27;;;;;;;;;;5011013;28;20182;-68
2023/10/20 08:57:14;;;;;;;9.53;5.87;;;;;;;;;;5010624;28;20175;-68
2023/10/20 08:59:48;;;;;;;10.60;6.10;;;;;;;;;;5010862;28;20179;-68
2023/10/20 09:02:14;;;;;;;9.30;5.40;;;;;;;;;;5011681;28;20205;-68
2023/10/20 09:04:40;;;;;;;8.57;4.80;;;;;;;;;;5011970;28;20638;-69
2023/10/20 09:07:14;;;;;;;7.83;5.03;;;;;;;;;;5010696;28;20206;-69
2023/10/20 09:09:39;;;;;;;6.73;4.17;;;;;;;;;;5006272;28;20222;-69
2023/10/20 09:12:05;;;;;;;5.87;4.13;;;;;;;;;;5010144;28;20195;-70
2023/10/20 09:14:31;;;;;;;7.17;4.47;;;;;;;;;;5012179;28;20179;-69
2023/10/20 09:16:59;;;;;;;5.90;3.97;;;;;;;;;;5011313;28;20179;-69
2023/10/20 09:19:24;;;;;;;9.33;4.20;;;;;;;;;;5011647;28;20179;-69
2023/10/20 09:21:50;;;;;;;7.10;3.90;;;;;;;;;;5010142;28;20294;-69
2023/10/20 09:24:17;;;;;;;6.63;3.83;;;;;;;;;;5010797;28;20171;-70
2023/10/20 09:26:44;;;;;;;4.90;3.83;;;;;;;;;;5006252;28;20234;-70
2023/10/20 09:29:09;;;;;;;7.50;3.97;;;;;;;;;;5011293;28;20175;-70
2023/10/20 09:31:35;;;;;;;6.87;4.17;;;;;;;;;;5009753;28;20555;-70
2023/10/20 09:34:02;;;;;;;6.53;3.83;;;;;;;;;;5010039;28;20175;-70
2023/10/20 09:36:29;;;;;;;4.77;3.27;;;;;;;;;;5010018;28;20610;-70
2023/10/20 09:38:56;;;;;;;4.47;3.20;;;;;;;;;;5009557;28;20183;-68
2023/10/20 09:41:27;;;;;;;5.17;3.67;;;;;;;;;;5008788;28;20199;-68
2023/10/20 09:43:54;;;;;;;10.60;3.90;;;;;;;;;;5009066;28;20248;-68
2023/10/20 09:46:26;;;;;;;3.77;3.03;;;;;;;;;;5010720;28;20202;-69
2023/10/20 09:48:53;;;;;;;4.73;3.27;;;;;;;;;;5009045;28;20182;-70
2023/10/20 09:51:18;;;;;;;4.77;2.83;;;;;;;;;;5010880;28;20623;-70
2023/10/20 09:53:44;;;;;;;4.00;2.90;;;;;;;;;;5010730;28;20210;-70
2023/10/20 09:56:10;;;;;;;3.33;2.80;;;;;;;;;;5009984;28;20217;-70
2023/10/20 09:58:38;;;;;;;2.77;2.00;;;;;;;;;;5009680;28;20179;-67
2023/10/20 10:01:05;;;;;;;4.60;2.43;;;;;;;;;;5010317;28;20203;-69
2023/10/20 10:03:40;;;;;;;4.63;2.03;;;;;;;;;;5009809;28;20191;-69
2023/10/20 10:06:16;;;;;;;3.57;2.13;;;;;;;;;;5008041;28;20207;-69
2023/10/20 10:08:43;;;;;;;2.80;1.90;;;;;;;;;;5010065;28;20179;-69
2023/10/20 10:11:19;;;;;;;2.20;1.73;;;;;;;;;;5011189;28;20281;-68
2023/10/20 10:13:44;;;;;;;4.60;1.60;;;;;;;;;;5009936;28;20170;-69
2023/10/20 10:16:10;;;;;;;2.90;1.57;;;;;;;;;;5009615;28;20178;-68
2023/10/20 10:18:44;;;;;;;2.73;1.70;;;;;;;;;;5010446;28;20171;-68
2023/10/20 10:21:20;;;;;;;2.40;1.50;;;;;;;;;;5010905;28;20200;-70
2023/10/20 10:24:00;;;;;;;1.70;1.53;;;;;;;;;;5009593;28;20639;-69
2023/10/20 10:26:26;;;;;;;1.77;1.23;;;;;;;;;;5003479;28;20286;-69
2023/10/20 10:28:52;;;;;;;1.60;1.20;;;;;;;;;;5009568;28;20236;-69
2023/10/20 10:31:17;;;;;;;1.43;1.20;;;;;;;;;;5009917;28;20206;-69
2023/10/20 10:33:42;;;;;;;1.67;1.10;;;;;;;;;;5007583;28;20599;-69
2023/10/20 10:36:10;;;;;;;1.97;1.30;;;;;;;;;;5007321;28;20178;-68
2023/10/20 10:38:42;;;;;;;1.67;1.50;;;;;;;;;;5013990;28;20179;-68
2023/10/20 10:41:07;;;;;;;2.20;1.27;;;;;;;;;;5013970;28;20205;-69
2023/10/20 10:43:32;;;;;;;1.80;1.20;;;;;;;;;;5013083;28;20175;-68
2023/10/20 10:45:57;;;;;;;1.83;1.40;;;;;;;;;;5011687;28;20223;-68
2023/10/20 10:48:23;;;;;;;1.33;1.10;;;;;;;;;;5014371;28;20178;-68
2023/10/20 10:50:49;;;;;;;1.00;0.90;;;;;;;;;;5013088;28;20191;-69
2023/10/20 10:53:14;;;;;;;1.27;1.00;;;;;;;;;;5013216;28;20171;-68
2023/10/20 10:55:40;;;;;;;4.60;1.20;;;;;;;;;;5012062;28;20259;-69
2023/10/20 10:58:08;;;;;;;1.73;1.10;;;;;;;;;;5013786;28;20305;-68
2023/10/20 11:00:33;;;;;;;1.50;1.10;;;;;;;;;;5013405;28;20202;-68
2023/10/20 11:03:00;;;;;;;1.47;0.90;;;;;;;;;;5013764;28;20198;-68
2023/10/20 11:05:25;;;;;;;1.33;0.90;;;;;;;;;;5014121;28;20171;-68
2023/10/20 11:08:10;;;;;;;1.70;0.90;;;;;;;;;;5012986;28;20575;-68
2023/10/20 11:10:37;;;;;;;2.27;1.10;;;;;;;;;;5014018;28;20191;-68
2023/10/20 11:13:06;;;;;;;1.37;0.93;;;;;;;;;;5013778;28;20650;-69
2023/10/20 11:15:32;;;;;;;0.80;0.70;;;;;;;;;;5013789;28;20249;-69
2023/10/20 11:17:58;;;;;;;1.20;1.10;;;;;;;;;;5013595;28;20202;-67
2023/10/20 11:20:24;;;;;;;1.13;1.00;;;;;;;;;;5013724;28;20197;-67
2023/10/20 11:22:56;;;;;;;0.73;0.73;;;;;;;;;;5011275;28;20175;-67
2023/10/20 11:25:21;;;;;;;0.90;0.70;;;;;;;;;;5007656;28;20182;-68
2023/10/20 11:27:54;;;;;;;1.43;0.80;;;;;;;;;;5013128;28;20207;-68
2023/10/20 11:30:28;;;;;;;2.70;1.13;;;;;;;;;;5006808;28;20266;-67
2023/10/20 11:32:54;;;;;;;1.10;0.90;;;;;;;;;;5010271;28;20167;-67
2023/10/20 11:35:24;;;;;;;0.70;0.70;;;;;;;;;;5010103;28;20178;-68
2023/10/20 11:37:49;;;;;;;3.53;1.20;;;;;;;;;;5010894;28;20186;-68
2023/10/20 11:40:15;;;;;;;1.27;1.00;;;;;;;;;;5011205;28;20702;-69
2023/10/20 11:42:40;;;;;;;1.67;0.90;;;;;;;;;;5013526;28;20237;-69
2023/10/20 11:45:06;;;;;;;1.43;0.97;;;;;;;;;;5012309;28;20175;-68
2023/10/20 11:47:31;;;;;;;2.43;0.90;;;;;;;;;;5013324;28;20206;-69
2023/10/20 11:49:57;;;;;;;2.00;0.93;;;;;;;;;;5011509;28;20253;-68
2023/10/20 11:52:23;;;;;;;1.07;1.00;;;;;;;;;;5012054;28;20654;-69
2023/10/20 11:54:49;;;;;;;2.03;0.90;;;;;;;;;;5011394;28;20189;-67
2023/10/20 11:57:14;;;;;;;1.87;1.17;;;;;;;;;;5012973;28;20167;-67
2023/10/20 11:59:39;;;;;;;1.03;0.93;;;;;;;;;;5010635;28;20179;-67
2023/10/20 12:02:05;;;;;;;1.17;0.90;;;;;;;;;;5011841;28;20316;-67
2023/10/20 12:04:30;;;;;;;1.27;1.17;;;;;;;;;;5010941;28;20191;-67
2023/10/20 12:06:55;;;;;;;1.70;1.30;;;;;;;;;;5012206;28;20241;-67
2023/10/20 12:09:20;;;;;;;1.30;0.97;;;;;;;;;;5012105;28;20191;-67
2023/10/20 12:11:45;;;;;;;1.97;1.27;;;;;;;;;;5012808;28;20198;-68
2023/10/20 12:14:13;;;;;;;1.50;1.40;;;;;;;;;;5012113;28;20676;-68
2023/10/20 12:16:39;;;;;;;1.80;1.30;;;;;;;;;;5011872;28;20210;-68
2023/10/20 12:19:06;;;;;;;1.40;1.10;;;;;;;;;;5010878;28;20214;-68
2023/10/20 12:21:31;;;;;;;1.17;1.00;;;;;;;;;;5012592;28;20571;-67
2023/10/20 12:23:57;;;;;;;1.55;1.27;;;;;;;;;;5011344;28;20257;-67
2023/10/20 12:26:22;;;;;;;1.50;1.40;;;;;;;;;;5010034;28;20207;-68
2023/10/20 12:28:49;;;;;;;1.27;1.10;;;;;;;;;;5006651;28;20616;-68
2023/10/20 12:31:14;;;;;;;2.97;1.40;;;;;;;;;;5011658;28;20585;-68
2023/10/20 12:33:40;;;;;;;1.90;1.52;;;;;;;;;;5009633;28;20175;-68
2023/10/20 12:36:05;;;;;;;1.20;1.05;;;;;;;;;;5010083;28;20183;-68
2023/10/20 12:38:30;;;;;;;1.77;1.60;;;;;;;;;;5010654;28;20422;-67
2023/10/20 12:40:56;;;;;;;1.08;0.90;;;;;;;;;;5011021;28;20721;-67
2023/10/20 12:43:21;;;;;;;2.50;1.75;;;;;;;;;;5012331;28;20210;-67
2023/10/20 12:45:47;;;;;;;3.20;1.63;;;;;;;;;;5011133;28;20214;-66
2023/10/20 12:48:12;;;;;;;1.30;1.17;;;;;;;;;;5010849;28;20206;-67
2023/10/20 12:50:38;;;;;;;2.97;1.73;;;;;;;;;;5010889;28;20281;-66
2023/10/20 12:53:04;;;;;;;2.20;1.40;;;;;;;;;;5010939;28;20258;-66
2023/10/20 12:55:30;;;;;;;1.37;1.23;;;;;;;;;;5009533;28;20182;-67
2023/10/20 12:57:56;;;;;;;1.80;1.30;;;;;;;;;;5010367;28;20557;-68
2023/10/20 13:00:21;;;;;;;1.63;1.10;;;;;;;;;;5010718;28;20221;-69
2023/10/20 13:02:49;;;;;;;2.73;1.43;;;;;;;;;;5011567;28;20611;-66
2023/10/20 13:05:15;;;;;;;3.30;1.33;;;;;;;;;;5011263;28;20175;-67
2023/10/20 13:07:40;;;;;;;1.57;1.47;;;;;;;;;;5010932;28;20221;-67
2023/10/20 13:10:06;;;;;;;1.90;1.50;;;;;;;;;;5011418;28;20175;-67
2023/10/20 13:12:31;;;;;;;1.67;1.23;;;;;;;;;;5011929;28;20171;-66
2023/10/20 13:14:56;;;;;;;1.83;1.17;;;;;;;;;;5011829;28;20177;-67
2023/10/20 13:17:22;;;;;;;1.40;1.30;;;;;;;;;;5011449;28;20221;-68
2023/10/20 13:19:49;;;;;;;1.80;1.50;;;;;;;;;;5011409;28;20172;-66
2023/10/20 13:22:14;;;;;;;1.40;1.17;;;;;;;;;;5008470;28;20186;-67
2023/10/20 13:24:40;;;;;;;1.50;1.23;;;;;;;;;;5011343;28;20171;-67
2023/10/20 13:27:06;;;;;;;3.63;1.73;;;;;;;;;;5009606;28;20229;-67
2023/10/20 13:29:31;;;;;;;1.27;1.17;;;;;;;;;;5009868;28;20254;-67
2023/10/20 13:31:56;;;;;;;1.23;1.10;;;;;;;;;;5007471;28;20214;-67
2023/10/20 13:34:22;;;;;;;1.33;1.20;;;;;;;;;;5009626;28;20183;-67
2023/10/20 13:36:47;;;;;;;1.40;1.20;;;;;;;;;;5008993;28;20178;-67
2023/10/20 13:39:15;;;;;;;1.60;1.10;;;;;;;;;;5010324;28;20261;-67
2023/10/20 13:41:41;;;;;;;3.07;1.37;;;;;;;;;;5011125;28;20237;-67
2023/10/20 13:44:08;;;;;;;1.30;0.98;;;;;;;;;;5010504;28;20226;-68
2023/10/20 13:46:33;;;;;;;1.27;1.00;;;;;;;;;;5010181;28;20241;-68
2023/10/20 13:48:59;;;;;;;1.10;1.05;;;;;;;;;;5010820;28;20619;-68
2023/10/20 13:51:24;;;;;;;1.30;1.20;;;;;;;;;;5011108;28;20602;-68
2023/10/20 13:53:49;;;;;;;1.20;1.10;;;;;;;;;;5011127;28;20254;-68
2023/10/20 13:56:15;;;;;;;2.38;1.00;;;;;;;;;;5010229;28;20542;-68
2023/10/20 13:58:42;;;;;;;1.45;0.90;;;;;;;;;;5011249;28;20175;-67
2023/10/20 14:01:07;;;;;;;1.00;0.95;;;;;;;;;;5007621;28;20218;-67
2023/10/20 14:03:32;;;;;;;1.05;1.00;;;;;;;;;;5009931;28;20182;-67
2023/10/20 14:05:57;;;;;;;3.65;1.10;;;;;;;;;;5007690;28;20576;-67
2023/10/20 14:08:22;;;;;;;1.00;0.90;;;;;;;;;;5011000;28;20211;-68
2023/10/20 14:10:48;;;;;;;0.85;0.70;;;;;;;;;;5007470;28;20194;-67
2023/10/20 14:13:14;;;;;;;1.10;0.85;;;;;;;;;;5010682;28;20228;-68
2023/10/20 14:15:39;;;;;;;1.00;0.70;;;;;;;;;;5009819;28;20254;-67
2023/10/20 14:18:05;;;;;;;0.70;0.70;;;;;;;;;;5010114;28;20722;-68
2023/10/20 14:20:31;;;;;;;0.95;0.80;;;;;;;;;;5008976;28;20195;-68
2023/10/20 14:22:56;;;;;;;1.25;0.93;;;;;;;;;;5011426;28;20178;-68
2023/10/20 14:25:22;;;;;;;1.70;1.20;;;;;;;;;;5010190;28;20198;-68
2023/10/20 14:27:47;;;;;;;1.35;0.90;;;;;;;;;;5011565;28;20701;-68
2023/10/20 14:30:12;;;;;;;1.65;1.10;;;;;;;;;;5010173;28;20213;-68
2023/10/20 14:32:37;;;;;;;1.15;0.80;;;;;;;;;;5011563;28;20206;-68
2023/10/20 14:35:03;;;;;;;0.80;0.80;;;;;;;;;;5009578;28;20198;-68
2023/10/20 14:37:28;;;;;;;2.20;1.23;;;;;;;;;;5010112;28;20178;-68
2023/10/20 14:39:53;;;;;;;0.73;0.73;;;;;;;;;;5010314;28;20237;-67
2023/10/20 14:42:18;;;;;;;1.15;0.85;;;;;;;;;;5010045;28;20221;-67
2023/10/20 14:44:43;;;;;;;0.85;0.85;;;;;;;;;;5009658;28;20198;-68
2023/10/20 14:47:09;;;;;;;1.10;0.77;;;;;;;;;;5009937;28;20207;-67
2023/10/20 14:49:36;;;;;;;1.40;0.75;;;;;;;;;;5009096;28;20266;-67
2023/10/20 14:52:02;;;;;;;0.70;0.70;;;;;;;;;;5009831;28;20689;-67
2023/10/20 14:54:27;;;;;;;1.00;0.90;;;;;;;;;;5009267;28;20185;-67
2023/10/20 14:56:53;;;;;;;1.17;0.73;;;;;;;;;;5007522;28;20213;-67
2023/10/20 14:59:19;;;;;;;1.08;0.98;;;;;;;;;;5010438;28;20207;-68